ZGKL

Guilin Liangjiang International Airport

Guilin City, China
TAF ZGKL 241915Z 2500/2524 05003MPS 9999 BKN050 TX31/2507Z TN21/2522Z
Issued Valid From Valid To
Sep-24 @ 19:15 UTC
(7 hours ago)
Sep-25 @ 00:00 UTC
(2 hours ago)
Sep-26 @ 00:00 UTC
(in 22 hours)
Sep-25 @ 00:00 to Sep-26 @ 00:00
TAF ZGKL 241915Z 2500/2524 05003MPS 9999 BKN050 TX31/2507Z TN21/2522Z
Wind Visibility Clouds
50° at 6 knots 10,000+ meters
  • Broken at 5,000' AGL
TAF ZGKL 241915Z 2500/2524 05003MPS 9999 BKN050 TX31/2507Z TN21/2522Z
Issued Sep-24 @ 19:15 UTC
(7 hours ago)
Valid From Sep-25 @ 00:00 UTC
(2 hours ago)
Valid To Sep-26 @ 00:00 UTC
(in 22 hours)
Sep-25 @ 00:00 - Sep-26 @ 00:00
Wind Visibility
50° at 6 knots 10,000+ meters
Clouds
  • Broken at 5,000' AGL